sensor_id;sensor_type;location;lat;lon;timestamp;temperature;humidity
21171;DHT22;10743;52.160;20.910;2022-10-17T00:00:54;30.00;38.60
21171;DHT22;10743;52.160;20.910;2022-10-17T00:03:21;30.00;38.70
21171;DHT22;10743;52.160;20.910;2022-10-17T00:05:48;30.00;38.70
21171;DHT22;10743;52.160;20.910;2022-10-17T00:08:17;30.00;38.70
21171;DHT22;10743;52.160;20.910;2022-10-17T00:10:54;30.00;38.70
21171;DHT22;10743;52.160;20.910;2022-10-17T00:13:24;30.00;38.70
21171;DHT22;10743;52.160;20.910;2022-10-17T00:15:52;30.00;38.70
21171;DHT22;10743;52.160;20.910;2022-10-17T00:18:19;30.00;38.80
21171;DHT22;10743;52.160;20.910;2022-10-17T00:20:46;30.00;38.70
21171;DHT22;10743;52.160;20.910;2022-10-17T00:23:13;30.00;38.60
21171;DHT22;10743;52.160;20.910;2022-10-17T00:25:40;30.00;38.60
21171;DHT22;10743;52.160;20.910;2022-10-17T00:28:11;30.00;38.50
21171;DHT22;10743;52.160;20.910;2022-10-17T00:30:38;30.00;38.60
21171;DHT22;10743;52.160;20.910;2022-10-17T00:33:06;30.00;38.50
21171;DHT22;10743;52.160;20.910;2022-10-17T00:35:33;30.00;38.50
21171;DHT22;10743;52.160;20.910;2022-10-17T00:38:00;30.00;38.50
21171;DHT22;10743;52.160;20.910;2022-10-17T00:40:27;30.00;38.50
21171;DHT22;10743;52.160;20.910;2022-10-17T00:42:54;29.90;38.30
21171;DHT22;10743;52.160;20.910;2022-10-17T00:45:25;29.90;38.40
21171;DHT22;10743;52.160;20.910;2022-10-17T00:47:59;29.90;38.30
21171;DHT22;10743;52.160;20.910;2022-10-17T00:50:30;29.90;38.30
21171;DHT22;10743;52.160;20.910;2022-10-17T00:53:00;29.90;38.50
21171;DHT22;10743;52.160;20.910;2022-10-17T00:55:32;29.90;38.10
21171;DHT22;10743;52.160;20.910;2022-10-17T00:58:03;29.80;38.00
21171;DHT22;10743;52.160;20.910;2022-10-17T01:00:31;29.80;38.10
21171;DHT22;10743;52.160;20.910;2022-10-17T01:02:58;29.80;38.00
21171;DHT22;10743;52.160;20.910;2022-10-17T01:05:25;29.80;38.00
21171;DHT22;10743;52.160;20.910;2022-10-17T01:07:54;29.80;38.00
21171;DHT22;10743;52.160;20.910;2022-10-17T01:10:21;29.70;38.10
21171;DHT22;10743;52.160;20.910;2022-10-17T01:13:21;29.70;38.00
21171;DHT22;10743;52.160;20.910;2022-10-17T01:16:42;29.70;38.10
21171;DHT22;10743;52.160;20.910;2022-10-17T01:19:35;29.70;38.20
21171;DHT22;10743;52.160;20.910;2022-10-17T01:22:26;29.70;38.40
21171;DHT22;10743;52.160;20.910;2022-10-17T01:31:12;29.60;38.60
21171;DHT22;10743;52.160;20.910;2022-10-17T01:33:59;29.60;38.70
21171;DHT22;10743;52.160;20.910;2022-10-17T01:39:34;29.60;38.90
21171;DHT22;10743;52.160;20.910;2022-10-17T01:42:26;29.60;38.90
21171;DHT22;10743;52.160;20.910;2022-10-17T01:45:18;29.60;39.00
21171;DHT22;10743;52.160;20.910;2022-10-17T01:47:50;29.60;39.20
21171;DHT22;10743;52.160;20.910;2022-10-17T01:50:28;29.60;39.20
21171;DHT22;10743;52.160;20.910;2022-10-17T01:53:14;29.60;39.20
21171;DHT22;10743;52.160;20.910;2022-10-17T01:56:13;29.60;39.00
21171;DHT22;10743;52.160;20.910;2022-10-17T01:58:46;29.70;39.00
21171;DHT22;10743;52.160;20.910;2022-10-17T02:01:18;29.70;38.90
21171;DHT22;10743;52.160;20.910;2022-10-17T02:03:47;29.70;39.00
21171;DHT22;10743;52.160;20.910;2022-10-17T02:06:15;29.70;38.90
21171;DHT22;10743;52.160;20.910;2022-10-17T02:08:47;29.70;38.90
21171;DHT22;10743;52.160;20.910;2022-10-17T02:11:23;29.70;38.90
21171;DHT22;10743;52.160;20.910;2022-10-17T02:14:27;29.70;38.80
21171;DHT22;10743;52.160;20.910;2022-10-17T02:17:08;29.70;38.80
21171;DHT22;10743;52.160;20.910;2022-10-17T02:23:05;29.70;38.60
21171;DHT22;10743;52.160;20.910;2022-10-17T02:31:22;29.70;38.30
21171;DHT22;10743;52.160;20.910;2022-10-17T02:33:58;29.70;38.30
21171;DHT22;10743;52.160;20.910;2022-10-17T02:36:31;29.60;38.20
21171;DHT22;10743;52.160;20.910;2022-10-17T02:39:03;29.60;38.20
21171;DHT22;10743;52.160;20.910;2022-10-17T02:41:32;29.60;38.60
21171;DHT22;10743;52.160;20.910;2022-10-17T02:44:02;29.50;38.00
21171;DHT22;10743;52.160;20.910;2022-10-17T02:46:30;29.60;38.10
21171;DHT22;10743;52.160;20.910;2022-10-17T02:49:02;29.50;38.00
21171;DHT22;10743;52.160;20.910;2022-10-17T02:51:51;29.50;38.00
21171;DHT22;10743;52.160;20.910;2022-10-17T02:57:31;29.50;37.90
21171;DHT22;10743;52.160;20.910;2022-10-17T03:00:04;29.40;37.90
21171;DHT22;10743;52.160;20.910;2022-10-17T03:02:47;29.40;38.10
21171;DHT22;10743;52.160;20.910;2022-10-17T03:05:20;29.40;37.90
21171;DHT22;10743;52.160;20.910;2022-10-17T03:07:51;29.30;37.80
21171;DHT22;10743;52.160;20.910;2022-10-17T03:10:20;29.30;37.90
21171;DHT22;10743;52.160;20.910;2022-10-17T03:12:48;29.30;37.80
21171;DHT22;10743;52.160;20.910;2022-10-17T03:15:15;29.30;37.90
21171;DHT22;10743;52.160;20.910;2022-10-17T03:17:42;29.30;37.90
21171;DHT22;10743;52.160;20.910;2022-10-17T03:20:12;29.30;38.00
21171;DHT22;10743;52.160;20.910;2022-10-17T03:22:39;29.30;38.20
21171;DHT22;10743;52.160;20.910;2022-10-17T03:25:06;29.30;38.20
21171;DHT22;10743;52.160;20.910;2022-10-17T03:27:34;29.30;38.30
21171;DHT22;10743;52.160;20.910;2022-10-17T03:30:02;29.20;38.30
21171;DHT22;10743;52.160;20.910;2022-10-17T03:32:32;29.20;38.30
21171;DHT22;10743;52.160;20.910;2022-10-17T03:35:00;29.30;38.40
21171;DHT22;10743;52.160;20.910;2022-10-17T03:37:27;29.20;38.50
21171;DHT22;10743;52.160;20.910;2022-10-17T03:39:54;29.20;38.40
21171;DHT22;10743;52.160;20.910;2022-10-17T03:42:21;29.20;38.50
21171;DHT22;10743;52.160;20.910;2022-10-17T03:44:48;29.20;38.50
21171;DHT22;10743;52.160;20.910;2022-10-17T03:47:16;29.20;38.50
21171;DHT22;10743;52.160;20.910;2022-10-17T03:49:44;29.20;38.50
21171;DHT22;10743;52.160;20.910;2022-10-17T03:52:12;29.20;38.60
21171;DHT22;10743;52.160;20.910;2022-10-17T03:54:39;29.20;38.60
21171;DHT22;10743;52.160;20.910;2022-10-17T03:57:06;29.20;38.60
21171;DHT22;10743;52.160;20.910;2022-10-17T03:59:34;29.20;38.50
21171;DHT22;10743;52.160;20.910;2022-10-17T04:02:06;29.20;38.50
21171;DHT22;10743;52.160;20.910;2022-10-17T04:04:34;29.20;38.50
21171;DHT22;10743;52.160;20.910;2022-10-17T04:07:02;29.20;38.50
21171;DHT22;10743;52.160;20.910;2022-10-17T04:09:29;29.20;38.50
21171;DHT22;10743;52.160;20.910;2022-10-17T04:12:05;29.20;38.40
21171;DHT22;10743;52.160;20.910;2022-10-17T04:14:35;29.20;38.40
21171;DHT22;10743;52.160;20.910;2022-10-17T04:17:03;29.10;38.20
21171;DHT22;10743;52.160;20.910;2022-10-17T04:19:32;29.10;38.20
21171;DHT22;10743;52.160;20.910;2022-10-17T04:21:58;29.10;38.10
21171;DHT22;10743;52.160;20.910;2022-10-17T04:24:27;29.20;38.20
21171;DHT22;10743;52.160;20.910;2022-10-17T04:27:02;29.20;38.00
21171;DHT22;10743;52.160;20.910;2022-10-17T04:29:32;29.20;37.90
21171;DHT22;10743;52.160;20.910;2022-10-17T04:32:14;29.10;38.00
21171;DHT22;10743;52.160;20.910;2022-10-17T04:34:56;29.20;38.00
21171;DHT22;10743;52.160;20.910;2022-10-17T04:37:23;29.10;37.90
21171;DHT22;10743;52.160;20.910;2022-10-17T04:39:52;29.10;37.90
21171;DHT22;10743;52.160;20.910;2022-10-17T04:42:19;29.10;38.00
21171;DHT22;10743;52.160;20.910;2022-10-17T04:44:48;29.10;38.20
21171;DHT22;10743;52.160;20.910;2022-10-17T04:47:16;29.00;38.10
21171;DHT22;10743;52.160;20.910;2022-10-17T04:49:43;29.00;38.30
21171;DHT22;10743;52.160;20.910;2022-10-17T04:52:12;29.00;38.40
21171;DHT22;10743;52.160;20.910;2022-10-17T04:54:42;28.90;38.30
21171;DHT22;10743;52.160;20.910;2022-10-17T04:57:12;29.00;38.50
21171;DHT22;10743;52.160;20.910;2022-10-17T04:59:41;28.90;38.50
21171;DHT22;10743;52.160;20.910;2022-10-17T05:02:25;28.90;38.50
21171;DHT22;10743;52.160;20.910;2022-10-17T05:04:53;28.90;38.50
21171;DHT22;10743;52.160;20.910;2022-10-17T05:07:21;28.90;38.40
21171;DHT22;10743;52.160;20.910;2022-10-17T05:10:00;28.90;38.40
21171;DHT22;10743;52.160;20.910;2022-10-17T05:12:28;28.90;38.50
21171;DHT22;10743;52.160;20.910;2022-10-17T05:14:56;28.90;38.50
21171;DHT22;10743;52.160;20.910;2022-10-17T05:17:24;28.90;38.40
21171;DHT22;10743;52.160;20.910;2022-10-17T05:19:51;28.90;38.50
21171;DHT22;10743;52.160;20.910;2022-10-17T05:22:21;28.90;38.40
21171;DHT22;10743;52.160;20.910;2022-10-17T05:24:48;28.90;38.40
21171;DHT22;10743;52.160;20.910;2022-10-17T05:27:15;28.90;38.50
21171;DHT22;10743;52.160;20.910;2022-10-17T05:29:42;28.90;38.50
21171;DHT22;10743;52.160;20.910;2022-10-17T05:32:16;28.90;38.50
21171;DHT22;10743;52.160;20.910;2022-10-17T05:34:44;28.90;38.60
21171;DHT22;10743;52.160;20.910;2022-10-17T05:37:11;28.90;38.60
21171;DHT22;10743;52.160;20.910;2022-10-17T05:39:40;28.90;38.50
21171;DHT22;10743;52.160;20.910;2022-10-17T05:42:09;28.90;38.60
21171;DHT22;10743;52.160;20.910;2022-10-17T05:44:35;28.90;38.40
21171;DHT22;10743;52.160;20.910;2022-10-17T05:47:07;28.90;38.40
21171;DHT22;10743;52.160;20.910;2022-10-17T05:49:34;28.90;38.40
21171;DHT22;10743;52.160;20.910;2022-10-17T05:52:24;28.90;38.30
21171;DHT22;10743;52.160;20.910;2022-10-17T05:55:12;28.90;38.40
21171;DHT22;10743;52.160;20.910;2022-10-17T05:57:39;28.90;38.70
21171;DHT22;10743;52.160;20.910;2022-10-17T06:00:11;29.00;38.90
21171;DHT22;10743;52.160;20.910;2022-10-17T06:02:43;29.00;39.00
21171;DHT22;10743;52.160;20.910;2022-10-17T06:05:14;29.00;39.00
21171;DHT22;10743;52.160;20.910;2022-10-17T06:07:42;29.00;39.10
21171;DHT22;10743;52.160;20.910;2022-10-17T06:10:09;29.00;39.20
21171;DHT22;10743;52.160;20.910;2022-10-17T06:12:38;29.10;39.20
21171;DHT22;10743;52.160;20.910;2022-10-17T06:15:06;29.10;40.00
21171;DHT22;10743;52.160;20.910;2022-10-17T06:17:34;29.10;39.30
21171;DHT22;10743;52.160;20.910;2022-10-17T06:20:01;29.10;39.50
21171;DHT22;10743;52.160;20.910;2022-10-17T06:22:28;29.10;38.90
21171;DHT22;10743;52.160;20.910;2022-10-17T06:24:55;29.20;38.90
21171;DHT22;10743;52.160;20.910;2022-10-17T06:27:23;29.20;38.80
21171;DHT22;10743;52.160;20.910;2022-10-17T06:29:49;29.20;39.20
21171;DHT22;10743;52.160;20.910;2022-10-17T06:32:17;29.30;39.30
21171;DHT22;10743;52.160;20.910;2022-10-17T06:34:45;29.30;39.50
21171;DHT22;10743;52.160;20.910;2022-10-17T06:37:13;29.30;39.70
21171;DHT22;10743;52.160;20.910;2022-10-17T06:39:41;29.40;40.10
21171;DHT22;10743;52.160;20.910;2022-10-17T06:42:14;29.40;40.10
21171;DHT22;10743;52.160;20.910;2022-10-17T06:45:13;29.40;40.30
21171;DHT22;10743;52.160;20.910;2022-10-17T06:47:45;29.50;40.20
21171;DHT22;10743;52.160;20.910;2022-10-17T06:50:34;29.50;40.40
21171;DHT22;10743;52.160;20.910;2022-10-17T06:53:14;29.60;40.60
21171;DHT22;10743;52.160;20.910;2022-10-17T06:55:50;29.60;40.70
21171;DHT22;10743;52.160;20.910;2022-10-17T06:58:38;29.70;40.90
21171;DHT22;10743;52.160;20.910;2022-10-17T07:01:30;29.70;40.90
21171;DHT22;10743;52.160;20.910;2022-10-17T07:03:58;29.70;40.70
21171;DHT22;10743;52.160;20.910;2022-10-17T07:06:27;29.80;40.90
21171;DHT22;10743;52.160;20.910;2022-10-17T07:08:57;29.80;40.80
21171;DHT22;10743;52.160;20.910;2022-10-17T07:11:24;29.80;40.80
21171;DHT22;10743;52.160;20.910;2022-10-17T07:13:51;29.90;40.70
21171;DHT22;10743;52.160;20.910;2022-10-17T07:16:20;29.90;40.60
21171;DHT22;10743;52.160;20.910;2022-10-17T07:18:53;30.00;40.70
21171;DHT22;10743;52.160;20.910;2022-10-17T07:21:21;30.00;40.70
21171;DHT22;10743;52.160;20.910;2022-10-17T07:23:48;30.10;40.80
21171;DHT22;10743;52.160;20.910;2022-10-17T07:26:16;30.10;40.80
21171;DHT22;10743;52.160;20.910;2022-10-17T07:28:46;30.20;40.80
21171;DHT22;10743;52.160;20.910;2022-10-17T07:31:26;30.20;40.70
21171;DHT22;10743;52.160;20.910;2022-10-17T07:33:53;30.30;40.70
21171;DHT22;10743;52.160;20.910;2022-10-17T07:36:20;30.40;41.00
21171;DHT22;10743;52.160;20.910;2022-10-17T07:38:47;30.50;40.60
21171;DHT22;10743;52.160;20.910;2022-10-17T07:41:16;30.50;40.60
21171;DHT22;10743;52.160;20.910;2022-10-17T07:43:48;30.60;40.60
21171;DHT22;10743;52.160;20.910;2022-10-17T07:46:19;30.60;40.50
21171;DHT22;10743;52.160;20.910;2022-10-17T07:48:46;30.70;40.60
21171;DHT22;10743;52.160;20.910;2022-10-17T07:51:14;30.80;40.70
21171;DHT22;10743;52.160;20.910;2022-10-17T07:53:40;30.80;40.70
21171;DHT22;10743;52.160;20.910;2022-10-17T07:56:14;30.90;40.50
21171;DHT22;10743;52.160;20.910;2022-10-17T07:58:41;30.90;40.70
21171;DHT22;10743;52.160;20.910;2022-10-17T08:01:09;31.00;40.40
21171;DHT22;10743;52.160;20.910;2022-10-17T08:03:43;31.10;40.30
21171;DHT22;10743;52.160;20.910;2022-10-17T08:06:11;31.20;40.00
21171;DHT22;10743;52.160;20.910;2022-10-17T08:08:38;31.30;39.70
21171;DHT22;10743;52.160;20.910;2022-10-17T08:11:07;31.30;39.80
21171;DHT22;10743;52.160;20.910;2022-10-17T08:13:36;31.40;39.80
21171;DHT22;10743;52.160;20.910;2022-10-17T08:16:06;31.50;39.60
21171;DHT22;10743;52.160;20.910;2022-10-17T08:18:35;31.60;39.70
21171;DHT22;10743;52.160;20.910;2022-10-17T08:21:05;31.60;39.40
21171;DHT22;10743;52.160;20.910;2022-10-17T08:23:34;31.70;39.40
21171;DHT22;10743;52.160;20.910;2022-10-17T08:26:04;31.80;39.30
21171;DHT22;10743;52.160;20.910;2022-10-17T08:28:34;31.90;39.10
21171;DHT22;10743;52.160;20.910;2022-10-17T08:31:03;31.90;38.70
21171;DHT22;10743;52.160;20.910;2022-10-17T08:33:35;32.00;39.40
21171;DHT22;10743;52.160;20.910;2022-10-17T08:36:03;32.00;38.80
21171;DHT22;10743;52.160;20.910;2022-10-17T08:38:31;32.10;38.60
21171;DHT22;10743;52.160;20.910;2022-10-17T08:41:13;32.20;38.50
21171;DHT22;10743;52.160;20.910;2022-10-17T08:46:31;32.40;38.30
21171;DHT22;10743;52.160;20.910;2022-10-17T08:49:01;32.40;38.00
21171;DHT22;10743;52.160;20.910;2022-10-17T08:51:36;32.50;38.00
21171;DHT22;10743;52.160;20.910;2022-10-17T08:54:15;32.60;38.30
21171;DHT22;10743;52.160;20.910;2022-10-17T08:56:48;32.60;38.00
21171;DHT22;10743;52.160;20.910;2022-10-17T08:59:25;32.70;37.90
21171;DHT22;10743;52.160;20.910;2022-10-17T09:02:05;32.80;37.30
21171;DHT22;10743;52.160;20.910;2022-10-17T09:05:09;32.80;37.40
21171;DHT22;10743;52.160;20.910;2022-10-17T09:11:20;33.00;37.30
21171;DHT22;10743;52.160;20.910;2022-10-17T09:17:14;33.20;37.40
21171;DHT22;10743;52.160;20.910;2022-10-17T09:20:23;33.20;37.00
21171;DHT22;10743;52.160;20.910;2022-10-17T09:22:58;33.30;37.00
21171;DHT22;10743;52.160;20.910;2022-10-17T09:25:33;33.40;37.40
21171;DHT22;10743;52.160;20.910;2022-10-17T09:28:33;33.50;37.30
21171;DHT22;10743;52.160;20.910;2022-10-17T09:31:11;33.60;36.60
21171;DHT22;10743;52.160;20.910;2022-10-17T09:33:50;33.60;36.40
21171;DHT22;10743;52.160;20.910;2022-10-17T09:38:55;33.80;36.70
21171;DHT22;10743;52.160;20.910;2022-10-17T09:41:30;33.80;36.20
21171;DHT22;10743;52.160;20.910;2022-10-17T09:44:31;33.90;36.10
21171;DHT22;10743;52.160;20.910;2022-10-17T09:49:42;34.10;36.30
21171;DHT22;10743;52.160;20.910;2022-10-17T09:52:33;34.10;35.90
21171;DHT22;10743;52.160;20.910;2022-10-17T09:55:05;34.20;35.90
21171;DHT22;10743;52.160;20.910;2022-10-17T09:58:10;34.30;35.70
21171;DHT22;10743;52.160;20.910;2022-10-17T10:00:43;34.40;35.70
21171;DHT22;10743;52.160;20.910;2022-10-17T10:03:22;34.50;35.50
21171;DHT22;10743;52.160;20.910;2022-10-17T10:06:12;34.50;35.70
21171;DHT22;10743;52.160;20.910;2022-10-17T10:08:55;34.60;35.50
21171;DHT22;10743;52.160;20.910;2022-10-17T10:12:02;34.60;35.10
21171;DHT22;10743;52.160;20.910;2022-10-17T10:14:36;34.70;35.30
21171;DHT22;10743;52.160;20.910;2022-10-17T10:19:53;34.90;34.50
21171;DHT22;10743;52.160;20.910;2022-10-17T10:22:21;34.90;34.80
21171;DHT22;10743;52.160;20.910;2022-10-17T10:27:43;35.10;34.20
21171;DHT22;10743;52.160;20.910;2022-10-17T10:30:19;35.20;34.10
21171;DHT22;10743;52.160;20.910;2022-10-17T10:32:48;35.20;33.90
21171;DHT22;10743;52.160;20.910;2022-10-17T10:35:22;35.30;33.90
21171;DHT22;10743;52.160;20.910;2022-10-17T10:37:55;35.30;34.20
21171;DHT22;10743;52.160;20.910;2022-10-17T10:40:35;35.40;33.60
21171;DHT22;10743;52.160;20.910;2022-10-17T10:43:05;35.50;33.80
21171;DHT22;10743;52.160;20.910;2022-10-17T10:48:33;35.50;33.60
21171;DHT22;10743;52.160;20.910;2022-10-17T10:51:07;35.60;33.30
21171;DHT22;10743;52.160;20.910;2022-10-17T10:53:55;35.70;33.10
21171;DHT22;10743;52.160;20.910;2022-10-17T11:02:16;35.70;32.80
21171;DHT22;10743;52.160;20.910;2022-10-17T11:05:00;35.80;32.70
21171;DHT22;10743;52.160;20.910;2022-10-17T11:07:32;35.80;32.60
21171;DHT22;10743;52.160;20.910;2022-10-17T11:10:18;35.80;32.40
21171;DHT22;10743;52.160;20.910;2022-10-17T11:15:45;35.80;33.20
21171;DHT22;10743;52.160;20.910;2022-10-17T11:18:25;35.80;33.00
21171;DHT22;10743;52.160;20.910;2022-10-17T11:21:04;35.90;32.20
21171;DHT22;10743;52.160;20.910;2022-10-17T11:23:41;35.90;32.00
21171;DHT22;10743;52.160;20.910;2022-10-17T11:26:17;36.00;32.20
21171;DHT22;10743;52.160;20.910;2022-10-17T11:29:11;36.00;32.70
21171;DHT22;10743;52.160;20.910;2022-10-17T11:31:45;36.00;33.00
21171;DHT22;10743;52.160;20.910;2022-10-17T11:34:26;36.00;32.60
21171;DHT22;10743;52.160;20.910;2022-10-17T11:37:22;36.00;32.40
21171;DHT22;10743;52.160;20.910;2022-10-17T11:40:05;36.10;32.70
21171;DHT22;10743;52.160;20.910;2022-10-17T11:45:45;36.10;32.00
21171;DHT22;10743;52.160;20.910;2022-10-17T11:48:26;36.10;32.00
21171;DHT22;10743;52.160;20.910;2022-10-17T11:51:07;36.00;31.90
21171;DHT22;10743;52.160;20.910;2022-10-17T11:54:10;36.00;32.00
21171;DHT22;10743;52.160;20.910;2022-10-17T11:56:59;36.00;32.30
21171;DHT22;10743;52.160;20.910;2022-10-17T12:05:38;36.00;32.60
21171;DHT22;10743;52.160;20.910;2022-10-17T12:08:28;36.10;32.40
21171;DHT22;10743;52.160;20.910;2022-10-17T12:11:19;36.10;32.50
21171;DHT22;10743;52.160;20.910;2022-10-17T12:13:54;36.10;32.50
21171;DHT22;10743;52.160;20.910;2022-10-17T12:24:33;36.30;32.30
21171;DHT22;10743;52.160;20.910;2022-10-17T12:27:30;36.20;32.00
21171;DHT22;10743;52.160;20.910;2022-10-17T12:30:02;36.30;32.20
21171;DHT22;10743;52.160;20.910;2022-10-17T12:32:31;36.30;32.10
21171;DHT22;10743;52.160;20.910;2022-10-17T12:35:21;36.30;32.10
21171;DHT22;10743;52.160;20.910;2022-10-17T12:48:58;36.30;32.30
21171;DHT22;10743;52.160;20.910;2022-10-17T12:51:26;36.30;32.30
21171;DHT22;10743;52.160;20.910;2022-10-17T12:54:14;36.30;32.70
21171;DHT22;10743;52.160;20.910;2022-10-17T12:56:44;36.30;32.30
21171;DHT22;10743;52.160;20.910;2022-10-17T12:59:27;36.30;32.20
21171;DHT22;10743;52.160;20.910;2022-10-17T13:02:07;36.30;32.90
21171;DHT22;10743;52.160;20.910;2022-10-17T13:04:42;36.30;32.20
21171;DHT22;10743;52.160;20.910;2022-10-17T13:07:19;36.30;32.40
21171;DHT22;10743;52.160;20.910;2022-10-17T13:09:47;36.30;32.20
21171;DHT22;10743;52.160;20.910;2022-10-17T13:12:21;36.30;32.20
21171;DHT22;10743;52.160;20.910;2022-10-17T13:14:51;36.20;31.90
21171;DHT22;10743;52.160;20.910;2022-10-17T13:17:28;36.20;31.90
21171;DHT22;10743;52.160;20.910;2022-10-17T13:19:56;36.20;31.80
21171;DHT22;10743;52.160;20.910;2022-10-17T13:22:26;36.20;32.20
21171;DHT22;10743;52.160;20.910;2022-10-17T13:25:24;36.20;32.20
21171;DHT22;10743;52.160;20.910;2022-10-17T13:28:09;36.20;32.20
21171;DHT22;10743;52.160;20.910;2022-10-17T13:30:38;36.20;31.90
21171;DHT22;10743;52.160;20.910;2022-10-17T13:33:28;36.20;32.30
21171;DHT22;10743;52.160;20.910;2022-10-17T13:35:58;36.10;32.30
21171;DHT22;10743;52.160;20.910;2022-10-17T13:38:29;36.10;32.20
21171;DHT22;10743;52.160;20.910;2022-10-17T13:40:58;36.10;32.30
21171;DHT22;10743;52.160;20.910;2022-10-17T13:43:47;36.10;32.60
21171;DHT22;10743;52.160;20.910;2022-10-17T13:46:24;36.10;32.90
21171;DHT22;10743;52.160;20.910;2022-10-17T13:51:53;36.00;33.10
21171;DHT22;10743;52.160;20.910;2022-10-17T13:54:37;36.00;33.20
21171;DHT22;10743;52.160;20.910;2022-10-17T13:57:33;35.90;33.20
21171;DHT22;10743;52.160;20.910;2022-10-17T14:00:06;36.00;33.20
21171;DHT22;10743;52.160;20.910;2022-10-17T14:02:41;35.90;33.20
21171;DHT22;10743;52.160;20.910;2022-10-17T14:05:15;35.90;33.70
21171;DHT22;10743;52.160;20.910;2022-10-17T14:07:55;35.90;33.50
21171;DHT22;10743;52.160;20.910;2022-10-17T14:10:44;35.90;33.40
21171;DHT22;10743;52.160;20.910;2022-10-17T14:13:25;35.80;33.50
21171;DHT22;10743;52.160;20.910;2022-10-17T14:15:55;35.80;33.50
21171;DHT22;10743;52.160;20.910;2022-10-17T14:18:32;35.80;33.80
21171;DHT22;10743;52.160;20.910;2022-10-17T14:21:04;35.80;33.70
21171;DHT22;10743;52.160;20.910;2022-10-17T14:24:10;35.80;33.50
21171;DHT22;10743;52.160;20.910;2022-10-17T14:26:56;35.80;33.50
21171;DHT22;10743;52.160;20.910;2022-10-17T14:29:26;35.80;33.60
21171;DHT22;10743;52.160;20.910;2022-10-17T14:32:14;35.80;33.80
21171;DHT22;10743;52.160;20.910;2022-10-17T14:34:41;35.70;33.90
21171;DHT22;10743;52.160;20.910;2022-10-17T14:37:25;35.70;34.30
21171;DHT22;10743;52.160;20.910;2022-10-17T14:40:19;35.70;34.30
21171;DHT22;10743;52.160;20.910;2022-10-17T14:42:49;35.70;34.30
21171;DHT22;10743;52.160;20.910;2022-10-17T14:45:29;35.70;34.30
21171;DHT22;10743;52.160;20.910;2022-10-17T14:48:11;35.70;34.30
21171;DHT22;10743;52.160;20.910;2022-10-17T14:50:41;35.70;34.60
21171;DHT22;10743;52.160;20.910;2022-10-17T14:53:34;35.60;34.30
21171;DHT22;10743;52.160;20.910;2022-10-17T14:56:26;35.60;34.30
21171;DHT22;10743;52.160;20.910;2022-10-17T14:58:59;35.50;34.50
21171;DHT22;10743;52.160;20.910;2022-10-17T15:01:28;35.50;34.50
21171;DHT22;10743;52.160;20.910;2022-10-17T15:06:18;35.50;34.00
21171;DHT22;10743;52.160;20.910;2022-10-17T15:08:46;35.40;34.90
21171;DHT22;10743;52.160;20.910;2022-10-17T15:11:13;35.40;35.10
21171;DHT22;10743;52.160;20.910;2022-10-17T15:13:40;35.40;35.10
21171;DHT22;10743;52.160;20.910;2022-10-17T15:16:19;35.40;34.90
21171;DHT22;10743;52.160;20.910;2022-10-17T15:18:48;35.30;35.00
21171;DHT22;10743;52.160;20.910;2022-10-17T15:21:17;35.30;35.00
21171;DHT22;10743;52.160;20.910;2022-10-17T15:24:03;35.30;35.00
21171;DHT22;10743;52.160;20.910;2022-10-17T15:26:31;35.20;35.20
21171;DHT22;10743;52.160;20.910;2022-10-17T15:28:59;35.20;35.30
21171;DHT22;10743;52.160;20.910;2022-10-17T15:31:28;35.20;35.30
21171;DHT22;10743;52.160;20.910;2022-10-17T15:33:56;35.10;35.30
21171;DHT22;10743;52.160;20.910;2022-10-17T15:36:33;35.10;35.30
21171;DHT22;10743;52.160;20.910;2022-10-17T15:39:02;35.00;35.20
21171;DHT22;10743;52.160;20.910;2022-10-17T15:41:30;35.00;35.30
21171;DHT22;10743;52.160;20.910;2022-10-17T15:43:58;35.00;35.40
21171;DHT22;10743;52.160;20.910;2022-10-17T15:46:31;35.00;35.40
21171;DHT22;10743;52.160;20.910;2022-10-17T15:49:08;34.90;35.40
21171;DHT22;10743;52.160;20.910;2022-10-17T15:51:37;34.90;35.50
21171;DHT22;10743;52.160;20.910;2022-10-17T15:54:04;34.80;35.50
21171;DHT22;10743;52.160;20.910;2022-10-17T15:56:34;34.70;35.50
21171;DHT22;10743;52.160;20.910;2022-10-17T15:59:05;34.70;35.50
21171;DHT22;10743;52.160;20.910;2022-10-17T16:01:36;34.70;35.60
21171;DHT22;10743;52.160;20.910;2022-10-17T16:04:04;34.60;35.70
21171;DHT22;10743;52.160;20.910;2022-10-17T16:06:31;34.60;35.80
21171;DHT22;10743;52.160;20.910;2022-10-17T16:08:58;34.50;35.70
21171;DHT22;10743;52.160;20.910;2022-10-17T16:11:31;34.40;35.70
21171;DHT22;10743;52.160;20.910;2022-10-17T16:14:19;34.40;35.80
21171;DHT22;10743;52.160;20.910;2022-10-17T16:16:46;34.40;35.90
21171;DHT22;10743;52.160;20.910;2022-10-17T16:19:13;34.30;35.80
21171;DHT22;10743;52.160;20.910;2022-10-17T16:21:41;34.30;35.90
21171;DHT22;10743;52.160;20.910;2022-10-17T16:24:09;34.20;35.90
21171;DHT22;10743;52.160;20.910;2022-10-17T16:26:38;34.20;36.00
21171;DHT22;10743;52.160;20.910;2022-10-17T16:29:05;34.10;36.00
21171;DHT22;10743;52.160;20.910;2022-10-17T16:31:34;34.10;36.00
21171;DHT22;10743;52.160;20.910;2022-10-17T16:34:03;34.00;36.10
21171;DHT22;10743;52.160;20.910;2022-10-17T16:36:32;34.00;36.10
21171;DHT22;10743;52.160;20.910;2022-10-17T16:38:59;34.00;36.20
21171;DHT22;10743;52.160;20.910;2022-10-17T16:41:36;33.90;36.20
21171;DHT22;10743;52.160;20.910;2022-10-17T16:44:06;33.90;36.20
21171;DHT22;10743;52.160;20.910;2022-10-17T16:46:36;33.80;36.20
21171;DHT22;10743;52.160;20.910;2022-10-17T16:49:06;33.80;36.30
21171;DHT22;10743;52.160;20.910;2022-10-17T16:51:33;33.70;36.30
21171;DHT22;10743;52.160;20.910;2022-10-17T16:54:02;33.80;36.40
21171;DHT22;10743;52.160;20.910;2022-10-17T16:56:30;33.70;36.40
21171;DHT22;10743;52.160;20.910;2022-10-17T16:58:59;33.70;36.40
21171;DHT22;10743;52.160;20.910;2022-10-17T17:01:27;33.60;36.40
21171;DHT22;10743;52.160;20.910;2022-10-17T17:03:57;33.60;36.50
21171;DHT22;10743;52.160;20.910;2022-10-17T17:06:27;33.60;36.50
21171;DHT22;10743;52.160;20.910;2022-10-17T17:08:55;33.60;36.50
21171;DHT22;10743;52.160;20.910;2022-10-17T17:11:25;33.50;36.50
21171;DHT22;10743;52.160;20.910;2022-10-17T17:13:57;33.50;36.60
21171;DHT22;10743;52.160;20.910;2022-10-17T17:16:26;33.40;36.50
21171;DHT22;10743;52.160;20.910;2022-10-17T17:18:55;33.40;36.60
21171;DHT22;10743;52.160;20.910;2022-10-17T17:21:25;33.30;36.60
21171;DHT22;10743;52.160;20.910;2022-10-17T17:23:54;33.40;36.70